Weather observations for the past three days for
Asheboro, Asheboro Municipal Airport
Imperial (Metric)
Date Time (edt) Wind (mph) Vis. (mi.) Weather Sky Cond. Temperature (ºF) Relative Humidity Wind Chill (°F) Heat Index (°F) Pressure Precipitation (in)
Air Dwpt 6 hour altimeter (in) sea level (mb) 1 hr 3 hr 6 hr
Max. Min.
03 23:35 Calm 10.00 Fair CLR 49.8 34.9 57% 30.07 0.0
03 23:15 Calm 10.00 Fair CLR 49.5 32.7 53% 30.07 0.0
03 22:55 Calm 10.00 Fair CLR 49.1 34 56% 30.06 0.0
03 22:35 Calm 10.00 Fair CLR 49.8 34 55% 30.06 0.0
03 22:15 SW 3 10.00 Fair CLR 50.5 34.3 54% 30.06 0.0
03 21:55 Calm 10.00 Fair CLR 51.3 34.7 53% 30.05 0.0
03 21:35 Calm 10.00 Fair CLR 51.1 35.1 54% 30.05 0.0
03 21:15 Calm 10.00 Fair CLR 50.5 37 60% 30.05 0.0
03 20:55 Calm 10.00 Fair CLR 51.3 37.4 59% 30.04 0.0
03 20:35 Calm 10.00 Fair CLR 52.7 36.5 54% 30.03 0.0
03 20:15 Calm 10.00 Fair CLR 55.4 35.2 47% 30.03 0.0
03 19:55 Calm 10.00 Fair CLR 58.5 34.7 64.4 58.5 41% 30.03 0.0
03 19:35 Calm 10.00 Fair CLR 62.6 28.2 27% 30.02 0.0
03 19:15 SW 3 10.00 Fair CLR 63.5 27.5 26% 30.03 0.0
03 18:55 SW 5 10.00 Fair CLR 63.5 27.3 25% 30.03 0.0
03 18:35 NW 3 10.00 Fair CLR 63.5 26.8 25% 30.03 0.0
03 18:15 NW 6 10.00 Fair CLR 63.9 27.3 25% 30.04 0.0
03 17:55 NW 5 10.00 Fair CLR 63.7 26.1 24% 30.04 0.0
03 17:35 Calm 10.00 Fair CLR 63.5 26.6 25% 30.04 0.0
03 17:15 W 6 10.00 Fair CLR 63.9 26.8 25% 30.04 0.0
03 16:35 SW 6 10.00 Fair CLR 63.1 23.4 22% 30.05 0.0
03 16:15 NW 7 10.00 Fair CLR 62.6 22.8 22% 30.06 0.0
03 15:55 W 9 10.00 Fair CLR 62.2 23.4 23% 30.07 0.0
03 15:35 S 5 10.00 Fair CLR 62.6 25.3 24% 30.07 0.0
03 15:15 Calm 10.00 Fair CLR 60.6 24.3 25% 30.09 0.0
03 14:55 W 6 10.00 Fair CLR 61.7 25.2 25% 30.09 0.0
03 14:35 NW 9 10.00 Fair CLR 62.1 26.1 25% 30.09 0.0
03 14:15 W 6 10.00 Fair CLR 60.1 27 28% 30.1 0.0
03 13:55 W 7 10.00 Fair CLR 59.4 24.4 59.5 38.7 26% 30.11 0.0
03 13:35 NW 6 10.00 Fair CLR 58.6 25.7 28% 30.11 0.0
03 13:15 NW 8 10.00 Fair CLR 59 25.9 28% 30.12 0.0
03 12:55 NW 6 G 9 10.00 Fair CLR 57.4 25.9 30% 30.13 0.0
03 12:35 NW 10 10.00 Fair CLR 57.2 25.9 30% 30.14 0.0
03 12:15 NW 9 10.00 Fair CLR 57 24.6 29% 30.14 0.0
03 11:55 NW 9 10.00 Fair CLR 55.4 24.8 31% 30.15 0.0
03 11:35 NW 7 10.00 Fair CLR 55.2 26.8 33% 30.15 0.0
03 11:15 N 5 10.00 Fair CLR 54 26.8 35% 30.15 0.0
03 10:55 N 9 10.00 Fair CLR 53.1 27.3 37% 30.15 0.0
03 10:35 NW 9 G 16 10.00 Fair CLR 52.7 27 37% 30.15 0.0
03 10:15 N 10 10.00 Fair CLR 52.2 28.4 40% 30.15 0.0
03 09:55 NW 12 G 17 10.00 Fair CLR 51.3 32.7 49% 30.15 0.0
03 09:35 NW 5 10.00 Fair CLR 50 35.2 57% 49 30.14 0.0
03 09:15 N 6 10.00 Fair CLR 47.7 35.6 63% 45 30.14 0.0
03 08:55 N 5 10.00 Fair CLR 46 36.1 68% 44 30.14 0.0
03 08:35 Calm 10.00 Fair CLR 43.5 37.6 80% 30.14 0.0
03 08:15 Calm 10.00 Fair CLR 41.4 36.5 83% 30.14 0.0
03 07:55 Calm 10.00 Fair CLR 38.3 36.7 38.3 33.8 94% 30.13 0.0
03 07:35 Calm 10.00 Fair CLR 35.6 34.9 97% 30.13 0.0
03 07:15 Calm 10.00 Fair CLR 35.1 34.2 97% 30.12 0.0
03 06:35 Calm 10.00 Fair CLR 34 33.4 98% 30.1 0.0
03 06:15 Calm 10.00 Fair CLR 33.8 32.5 95% 30.09 0.0
03 05:35 Calm 10.00 Fair CLR 35.2 34.5 97% 30.07 0.0
03 05:15 Calm 10.00 Fair CLR 35.4 34.7 97% 30.07 0.0
03 04:55 Calm 10.00 Fair CLR 35.1 34.3 97% 30.07 0.0
03 04:35 Calm 10.00 Fair CLR 36 35.2 97% 30.07 0.0
03 04:15 Calm 10.00 Fair CLR 36.1 35.6 98% 30.06 0.0
03 03:55 Calm 10.00 Fair CLR 35.6 35.1 98% 30.06 0.0
03 03:35 Calm 10.00 Fair CLR 36.1 35.6 98% 30.05 0.0
03 03:15 Calm 10.00 Fair CLR 36.5 36 98% 30.04 0.0
03 02:55 Calm 10.00 Fair CLR 36.7 36.1 98% 30.04 0.0
03 02:35 Calm 10.00 Fair CLR 36.5 35.8 97% 30.03 0.0
03 02:15 Calm 10.00 Fair CLR 36.9 36.1 97% 30.03 0.0
03 01:55 Calm 10.00 Fair CLR 37.6 36.9 50.2 37.4 97% 30.03 0.0
03 01:35 Calm 10.00 Fair CLR 38.1 37.2 97% 30.03 0.0
03 01:15 Calm 10.00 Fair CLR 38.7 37.8 97% 30.03 0.0
03 00:55 Calm 10.00 Fair CLR 38.5 37 95% 30.02 0.0
03 00:35 Calm 10.00 Fair CLR 39.2 38.3 97% 30.02 0.0
03 00:15 Calm 10.00 Fair CLR 40.1 39.2 97% 30.02 0.0
02 23:55 Calm 10.00 Fair CLR 40.5 39.2 95% 30.01 0.0
02 23:35 Calm 10.00 Fair CLR 40.6 39.6 96% 30.01 0.0
02 23:15 Calm 10.00 Fair CLR 41.2 39.6 94% 30.01 0.0
02 22:55 Calm 10.00 Fair CLR 41.5 40.1 95% 30 0.0
02 22:35 Calm 10.00 Fair CLR 42.6 40.6 93% 30 0.0
02 22:15 Calm 10.00 Fair CLR 43 41.2 93% 29.99 0.0
02 21:55 Calm 10.00 Fair CLR 43.5 41.5 93% 29.98 0.0
02 21:35 Calm 10.00 Fair CLR 44.2 41.9 92% 29.97 0.0
02 21:15 Calm 10.00 Fair CLR 45.9 42.6 89% 29.96 0.0
02 20:55 Calm 10.00 Partly Cloudy SCT080 45.7 42.1 87% 29.96 0.0
02 20:35 Calm 10.00 Partly Cloudy SCT080 47.3 42.1 82% 29.95 0.0
02 20:15 Calm 10.00 Fair CLR 48.9 41.9 77% 29.94 0.0
02 19:55 Calm 10.00 Fair CLR 50.5 41.7 55.4 50.5 72% 29.93 0.0
02 19:35 Calm 10.00 Fair CLR 53.6 39.7 60% 29.93 0.0
02 19:15 Calm 10.00 Fair CLR 54.5 37.2 52% 29.92 0.0
02 18:55 S 3 10.00 Fair CLR 55 36.9 51% 29.91 0.0
02 18:35 Calm 10.00 Fair CLR 54.5 35.2 48% 29.91 0.0
02 18:15 Calm 10.00 Fair CLR 54.5 35.4 49% 29.91 0.0
02 17:55 Calm 10.00 Partly Cloudy SCT075 54.5 34.9 48% 29.9 0.0
02 17:35 Calm 10.00 Overcast OVC075 55 36 49% 29.9 0.0
02 17:15 Calm 10.00 Mostly Cloudy BKN075 BKN110 55.4 34.5 45% 29.9 0.0
02 16:55 N 3 10.00 Mostly Cloudy SCT085 BKN110 54.5 34.2 46% 29.9 0.0
02 16:35 N 3 10.00 Overcast SCT060 SCT075 OVC085 54.5 33.3 45% 29.9 0.0
02 16:15 N 7 10.00 Overcast BKN060 BKN075 OVC110 54.5 32.7 44% 29.91 0.0
02 15:55 N 7 10.00 Light Rain SCT031 BKN080 OVC120 54.5 35.1 48% 29.92 0.0
02 15:35 N 8 10.00 Overcast BKN060 BKN075 OVC120 54.5 33.8 46% 29.92 0.0
02 15:15 N 7 10.00 Overcast SCT060 OVC120 54.5 32.7 44% 29.93 0.0
02 14:55 N 6 10.00 Overcast SCT060 SCT080 OVC110 54.3 32.2 43% 29.93 0.0
02 14:35 N 10 10.00 Overcast BKN060 OVC080 54.5 32 43% 29.92 0.0
02 14:15 N 9 10.00 Overcast OVC060 54.5 32 43% 29.93 0.0
02 13:55 N 9 10.00 Overcast OVC060 54.3 31.8 55.4 51.1 42% 29.94 0.0
02 13:35 N 8 10.00 Overcast OVC050 54.7 31.6 42% 29.94 0.0
02 13:15 N 8 10.00 Overcast BKN050 BKN070 OVC110 55 32.2 42% 29.95 0.0
02 12:55 N 9 10.00 Overcast OVC110 54.5 34.2 46% 29.94 0.0
02 12:35 N 13 G 17 10.00 Mostly Cloudy BKN120 54.1 32.9 45% 29.96 0.0
02 12:15 N 8 G 16 10.00 Mostly Cloudy SCT050 SCT095 BKN110 54.9 34 45% 29.96 0.0
02 11:55 N 9 10.00 Overcast OVC050 54.5 38.7 55% 29.97 0.0
02 11:35 N 9 10.00 Overcast SCT030 OVC050 54 36.3 51% 29.99 0.0
02 11:15 N 10 10.00 Overcast SCT050 BKN060 OVC070 53.1 38.7 58% 29.98 0.0
02 10:55 N 5 10.00 Light Drizzle BKN060 OVC070 52 41.7 68% 29.96 0.0
02 10:35 NE 5 10.00 Light Rain OVC050 51.8 43.3 73% 29.97 0.0
02 10:15 Calm 10.00 Light Drizzle OVC050 51.1 43.3 75% 29.97 0.0
02 09:55 NE 5 10.00 Light Rain OVC048 51.6 42.8 72% 29.97 0.0
02 09:35 NE 6 10.00 Light Drizzle OVC048 51.6 42.6 72% 29.96 0.0
02 09:15 N 6 10.00 Overcast OVC046 51.3 43.5 75% 29.95 0.0
02 08:55 N 6 10.00 Overcast BKN046 OVC065 51.8 44.2 76% 29.96 0.0
02 08:35 NE 6 10.00 Overcast OVC046 51.4 45.7 81% 29.94 0.0
02 08:10 N 7 10.00 Overcast OVC041 51.4 47.5 86% 29.94 0.0
02 07:55 N 7 10.00 Overcast OVC039 51.8 48 51.8 49.1 87% 29.94 0.0
02 07:35 N 5 10.00 Overcast OVC035 51.3 48.2 89% 29.93 0.0
02 07:15 N 5 10.00 Light Rain OVC035 50.9 48.4 91% 29.93 0.0
02 06:55 Calm 10.00 Overcast BKN035 BKN095 OVC120 50.4 49.5 97% 29.92 0.0
02 06:35 Calm 10.00 Light Drizzle SCT035 BKN085 OVC120 50 50 100% 29.92 0.0
02 06:15 Calm 10.00 Rain SCT031 BKN070 OVC085 50 49.5 98% 29.93 0.0
02 05:55 Calm 10.00 Light Drizzle BKN032 BKN050 OVC090 50 49.8 99% 29.94 0.0
02 05:35 Calm 10.00 Drizzle OVC033 50.5 49.8 97% 29.94 0.0
02 05:15 Calm 10.00 Drizzle OVC031 50.9 49.1 94% 29.95 0.0
02 04:55 Calm 10.00 Overcast OVC031 50.9 48.6 92% 29.94 0.0
02 04:35 Calm 10.00 Overcast OVC031 50.4 48.4 93% 29.94 0.0
02 04:15 Calm 10.00 Overcast OVC033 49.5 48.2 95% 29.93 0.0
02 03:55 Calm 10.00 Partly Cloudy SCT033 49.1 48 96% 29.92 0.0
02 03:15 Calm 10.00 Fair CLR 49.1 48 96% 29.91 0.0
02 02:55 Calm 10.00 Fair CLR 49.6 48.2 95% 29.9 0.0
02 02:35 Calm 10.00 Fair CLR 50 48.2 94% 29.9 0.0
02 02:15 Calm 10.00 Fair CLR 49.6 48.2 95% 29.91 0.0
02 01:55 Calm 10.00 Fair CLR 50 48.2 53.6 49.3 94% 29.92 0.0
02 01:35 Calm 10.00 Fair CLR 50 48 93% 29.92 0.0
02 01:15 Calm 10.00 Fair CLR 49.5 47.8 94% 29.93 0.0
02 00:55 Calm 10.00 Fair CLR 49.3 47.5 94% 29.93 0.0
02 00:35 Calm 10.00 Fair CLR 49.8 47.7 92% 29.93 0.0
02 00:15 Calm 10.00 Fair CLR 50 47.5 91% 29.94 0.0
01 23:55 Calm 10.00 Fair CLR 50 47.5 91% 29.94 0.0
01 23:35 Calm 10.00 Fair CLR 50.4 47.3 89% 29.94 0.0
01 23:15 Calm 10.00 Fair CLR 50.7 47.3 88% 29.95 0.0
01 22:55 SE 3 10.00 Fair CLR 50.2 47.3 90% 29.95 0.0
01 22:35 Calm 10.00 Fair CLR 50.2 46.9 89% 29.96 0.0
01 22:15 Calm 10.00 Fair CLR 50.2 46.8 88% 29.95 0.0
01 21:55 Calm 10.00 Fair CLR 50.7 46.8 86% 29.95 0.0
01 21:35 Calm 10.00 Fair CLR 51.1 46.6 85% 29.95 0.0
01 21:15 Calm 10.00 Fair CLR 52.7 46.4 79% 29.96 0.0
01 20:55 Calm 10.00 Fair CLR 52.7 46.4 79% 29.94 0.0
01 20:35 Calm 10.00 Fair CLR 52.5 45.9 78% 29.93 0.0
01 20:15 Calm 10.00 Fair CLR 53.6 45.5 74% 29.92 0.0
01 19:55 SE 3 10.00 Fair CLR 53.8 45.5 61 53.8 74% 29.91 0.0
01 19:35 SE 3 10.00 Fair CLR 54.9 46.2 73% 29.92 0.0
01 19:15 S 6 10.00 Fair CLR 55.8 46.8 72% 29.92 0.0
01 18:55 S 8 10.00 Fair CLR 56.5 46.9 71% 29.92 0.0
01 18:35 S 8 10.00 Fair CLR 56.8 46.8 69% 29.92 0.0
01 18:15 S 7 10.00 Fair CLR 57.4 46.2 67% 29.92 0.0
01 17:55 S 5 10.00 Fair CLR 58.3 45.5 63% 29.92 0.0
01 17:35 SE 8 10.00 Fair CLR 59.2 44.8 59% 29.93 0.0
01 17:15 S 8 10.00 Fair CLR 59.9 44.1 56% 29.93 0.0
01 16:55 SE 7 10.00 Fair CLR 59.4 42.6 54% 29.93 0.0
01 16:35 S 6 10.00 Fair CLR 59.2 41.9 53% 29.93 0.0
01 16:15 S 7 10.00 Partly Cloudy SCT050 59.9 42.3 52% 29.95 0.0
01 15:55 S 8 10.00 Overcast BKN050 OVC060 59.9 41.9 52% 29.95 0.0
01 15:35 SE 6 10.00 Overcast OVC046 59.9 41.4 51% 29.96 0.0
01 15:15 SE 7 10.00 Overcast OVC048 59.9 41.9 52% 29.98 0.0
01 14:55 SE 6 10.00 Overcast OVC050 60.1 41.5 51% 29.98 0.0
01 14:35 SE 3 10.00 Overcast OVC050 60.4 41.4 50% 29.98 0.0
01 14:15 Calm 10.00 Overcast BKN050 OVC060 59.7 38.7 46% 29.98 0.0
01 13:55 S 5 10.00 Overcast BKN055 OVC070 59.9 39.2 59.9 50 46% 29.99 0.0
01 13:35 SE 3 10.00 Mostly Cloudy SCT055 BKN070 59.2 37.6 45% 29.99 0.0
01 13:15 SE 3 10.00 Mostly Cloudy BKN055 BKN065 59.5 37.2 44% 30 0.0
01 12:55 NE 3 10.00 Overcast BKN055 OVC065 58.3 37.9 47% 30.01 0.0
01 12:35 SE 6 10.00 Overcast OVC055 57.4 38.5 49% 30.01 0.0
01 12:15 Calm 10.00 Mostly Cloudy BKN060 56.7 38.3 50% 30.02 0.0
01 11:55 Calm 10.00 Overcast BKN060 OVC070 55.9 38.1 51% 30.02 0.0
01 11:35 NE 3 10.00 Overcast OVC060 54.9 37 51% 30.04 0.0
01 11:15 E 3 10.00 Overcast BKN060 OVC075 54.5 36.9 52% 30.04 0.0
01 10:55 E 6 10.00 Mostly Cloudy BKN060 BKN075 54.5 36.5 51% 30.03 0.0
01 10:35 E 7 10.00 Overcast OVC060 52.9 36.7 54% 30.03 0.0
01 10:15 E 5 10.00 Overcast OVC060 51.8 37.4 58% 30.03 0.0
01 09:55 Calm 10.00 Overcast OVC060 51.1 37.2 59% 30.03 0.0
01 09:35 E 3 10.00 Overcast OVC060 50.9 37.2 60% 30.02 0.0
01 09:15 NE 5 10.00 Overcast OVC070 50 37.4 62% 49 30.02 0.0
01 08:55 E 3 10.00 Overcast OVC070 50 37.4 62% 30.03 0.0
01 08:35 NE 5 10.00 Overcast OVC070 50.2 36.7 60% 30.03 0.0
01 08:15 E 3 10.00 Overcast BKN075 OVC080 50.2 36.3 59% 30.03 0.0
01 07:55 Calm 10.00 Overcast SCT065 OVC085 50.2 36.1 54.9 50 59% 30.03 0.0
01 07:35 Calm 10.00 Overcast SCT065 OVC080 50.2 35.6 57% 30.03 0.0
01 07:15 Calm 10.00 Overcast BKN085 BKN095 OVC120 50.4 34.5 55% 30.03 0.0
01 06:55 NE 3 10.00 Overcast OVC085 50 34.2 55% 30.01 0.0
01 06:35 NE 3 10.00 Mostly Cloudy BKN085 50 33.8 54% 30 0.0
01 06:15 NE 3 10.00 Mostly Cloudy BKN085 50.4 32.9 51% 30 0.0
01 05:55 NE 5 10.00 Mostly Cloudy BKN085 50.5 32.5 50% 29.99 0.0
01 05:35 NE 5 10.00 Partly Cloudy SCT085 50.9 32.5 50% 30 0.0
01 05:15 NE 5 10.00 Partly Cloudy SCT090 51.3 32.4 49% 29.99 0.0
01 04:55 NE 5 10.00 Mostly Cloudy SCT080 BKN100 BKN120 52 32 47% 30.01 0.0
01 04:35 NE 3 10.00 Mostly Cloudy SCT090 BKN110 52.2 32 46% 29.99 0.0
01 04:15 NE 6 10.00 Mostly Cloudy BKN090 BKN110 52.7 32 45% 29.99 0.0
01 03:55 N 6 10.00 Overcast OVC090 53.1 32 45% 29.99 0.0
01 03:35 NE 6 10.00 Overcast OVC090 53.6 31.8 44% 29.99 0.0
01 03:15 N 10 10.00 Overcast OVC080 53.8 31.8 43% 29.98 0.0
01 02:55 N 9 10.00 Overcast OVC090 54.1 32.2 43% 29.98 0.0
01 02:35 N 9 10.00 Overcast OVC090 54.5 32.5 43% 29.99 0.0
01 02:15 N 8 10.00 Overcast OVC090 54.5 32.7 44% 29.98 0.0
01 01:55 N 6 10.00 Overcast OVC090 55 32.9 62.6 52.2 43% 29.99 0.0
01 01:35 N 8 10.00 Overcast SCT080 OVC090 55.6 32.7 42% 29.98 0.0
01 00:55 NE 5 10.00 Mostly Cloudy SCT080 BKN090 55.9 33.1 42% 29.97 0.0
01 00:35 N 5 10.00 Mostly Cloudy BKN090 55.8 34.3 45% 29.97 0.0
01 00:15 Calm 10.00 Mostly Cloudy SCT075 BKN090 52.3 41.4 66% 29.96 0.0
Date Time (edt) Wind (mph) Vis. (mi.) Weather Sky Cond. Air Dwpt Max. Min. Relative Humidity Wind Chill (°F) Heat Index (°F) altimeter (in) sea level (mb) 1 hr 3 hr 6 hr
6 hour
Temperature (ºF) Pressure Precipitation (in)